createdAt,value
2022-09-03T00:00:25.358Z,1.27
2022-09-03T00:03:00.794Z,1.25
2022-09-03T00:05:34.600Z,1.88
2022-09-03T00:08:07.100Z,1.40
2022-09-03T00:13:06.824Z,1.65
2022-09-03T00:15:36.005Z,1.95
2022-09-03T00:18:07.817Z,1.35
2022-09-03T00:20:41.245Z,1.48
2022-09-03T00:23:11.619Z,1.55
2022-09-03T00:25:42.243Z,0.95
2022-09-03T00:28:14.712Z,1.15
2022-09-03T00:30:44.221Z,1.38
2022-09-03T00:33:19.510Z,1.27
2022-09-03T00:35:49.976Z,1.67
2022-09-03T00:38:18.187Z,1.50
2022-09-03T00:41:07.941Z,1.20
2022-09-03T00:43:53.584Z,1.25
2022-09-03T00:46:25.896Z,1.35
2022-09-03T00:49:14.283Z,1.40
2022-09-03T00:51:47.931Z,1.13
2022-09-03T00:54:21.708Z,1.42
2022-09-03T00:56:55.799Z,1.30
2022-09-03T00:59:31.577Z,1.27
2022-09-03T01:02:09.346Z,1.30
2022-09-03T01:04:49.049Z,1.63
2022-09-03T01:07:22.416Z,1.33
2022-09-03T01:09:54.552Z,1.50
2022-09-03T01:12:33.259Z,1.20
2022-09-03T01:15:08.405Z,1.30
2022-09-03T01:17:49.631Z,1.30
2022-09-03T01:20:30.747Z,1.70
2022-09-03T01:23:23.230Z,1.23
2022-09-03T01:25:54.766Z,1.35
2022-09-03T01:28:40.687Z,1.00
2022-09-03T01:31:18.252Z,1.40
2022-09-03T01:33:51.529Z,1.73
2022-09-03T01:36:25.518Z,1.70
2022-09-03T01:38:57.505Z,1.42
2022-09-03T01:41:51.957Z,1.88
2022-09-03T01:44:28.395Z,1.30
2022-09-03T01:47:02.649Z,1.27
2022-09-03T01:49:35.763Z,1.52
2022-09-03T01:52:09.016Z,1.30
2022-09-03T01:54:50.485Z,1.30
2022-09-03T01:57:37.408Z,1.30
2022-09-03T02:00:10.766Z,1.40
2022-09-03T02:02:39.196Z,1.27
2022-09-03T02:05:09.958Z,1.25
2022-09-03T02:07:40.736Z,1.58
2022-09-03T02:10:10.625Z,1.30
2022-09-03T02:12:43.071Z,1.17
2022-09-03T02:17:42.526Z,1.40
2022-09-03T02:20:13.860Z,1.67
2022-09-03T02:22:42.082Z,1.83
2022-09-03T02:25:11.379Z,1.65
2022-09-03T02:27:39.787Z,1.45
2022-09-03T02:30:09.071Z,2.15
2022-09-03T02:32:38.733Z,1.50
2022-09-03T02:35:07.500Z,1.75
2022-09-03T02:37:35.566Z,1.42
2022-09-03T02:40:06.714Z,1.52
2022-09-03T02:42:34.971Z,1.30
2022-09-03T02:45:09.240Z,1.45
2022-09-03T02:47:39.251Z,1.45
2022-09-03T02:50:08.215Z,1.80
2022-09-03T02:52:36.493Z,1.50
2022-09-03T02:55:04.969Z,1.80
2022-09-03T02:57:33.088Z,1.83
2022-09-03T03:00:01.182Z,1.30
2022-09-03T03:02:29.201Z,2.08
2022-09-03T03:04:58.630Z,1.33
2022-09-03T03:07:26.844Z,1.60
2022-09-03T03:09:56.130Z,1.45
2022-09-03T03:12:25.264Z,1.48
2022-09-03T03:14:53.224Z,1.10
2022-09-03T03:17:21.251Z,1.38
2022-09-03T03:19:49.262Z,1.50
2022-09-03T03:22:18.526Z,1.55
2022-09-03T03:24:46.530Z,1.55
2022-09-03T03:27:14.996Z,1.45
2022-09-03T03:29:42.966Z,1.50
2022-09-03T03:32:11.099Z,1.40
2022-09-03T03:34:39.967Z,1.98
2022-09-03T03:37:07.950Z,1.58
2022-09-03T03:39:37.421Z,1.40
2022-09-03T03:42:05.698Z,1.45
2022-09-03T03:44:33.680Z,1.40
2022-09-03T03:47:01.824Z,1.50
2022-09-03T03:49:29.929Z,1.48
2022-09-03T03:51:58.016Z,1.65
2022-09-03T03:54:26.668Z,1.27
2022-09-03T03:56:56.000Z,1.63
2022-09-03T03:59:24.700Z,2.13
2022-09-03T04:01:53.072Z,1.70
2022-09-03T04:04:21.033Z,1.42
2022-09-03T04:06:49.232Z,1.70
2022-09-03T04:09:17.261Z,1.77
2022-09-03T04:11:45.238Z,1.40
2022-09-03T04:14:14.880Z,1.48
2022-09-03T04:16:43.321Z,1.40
2022-09-03T04:19:11.671Z,1.40
2022-09-03T04:21:40.167Z,1.27
2022-09-03T04:24:08.587Z,1.50
2022-09-03T04:26:36.884Z,1.67
2022-09-03T04:29:06.394Z,1.48
2022-09-03T04:31:37.177Z,1.70
2022-09-03T04:34:06.519Z,1.42
2022-09-03T04:36:35.007Z,1.60
2022-09-03T04:39:03.237Z,1.25
2022-09-03T04:41:32.692Z,1.83
2022-09-03T04:44:01.398Z,1.50
2022-09-03T04:46:33.750Z,1.30
2022-09-03T04:49:03.765Z,1.48
2022-09-03T04:51:32.437Z,1.30
2022-09-03T04:54:01.948Z,1.52
2022-09-03T04:56:32.214Z,1.70
2022-09-03T04:59:02.041Z,1.63
2022-09-03T05:01:31.870Z,1.77
2022-09-03T05:04:00.548Z,1.70
2022-09-03T05:06:31.478Z,1.55
2022-09-03T05:08:59.971Z,1.60
2022-09-03T05:11:29.288Z,1.77
2022-09-03T05:13:59.868Z,1.50
2022-09-03T05:16:30.230Z,1.77
2022-09-03T05:19:01.246Z,2.22
2022-09-03T05:21:30.991Z,1.65
2022-09-03T05:24:02.215Z,1.63
2022-09-03T05:26:31.945Z,1.55
2022-09-03T05:29:01.539Z,1.58
2022-09-03T05:31:32.004Z,1.70
2022-09-03T05:34:03.122Z,1.85
2022-09-03T05:36:34.652Z,1.92
2022-09-03T05:39:02.782Z,1.67
2022-09-03T05:41:33.540Z,1.55
2022-09-03T05:44:01.597Z,1.58
2022-09-03T05:46:33.432Z,1.80
2022-09-03T05:49:02.373Z,2.05
2022-09-03T05:51:32.958Z,1.70
2022-09-03T05:54:02.778Z,2.20
2022-09-03T05:56:32.019Z,1.70
2022-09-03T05:59:04.726Z,2.28
2022-09-03T06:01:34.192Z,1.80
2022-09-03T06:04:04.593Z,1.70
2022-09-03T06:06:35.840Z,1.55
2022-09-03T06:09:05.827Z,2.10
2022-09-03T06:11:35.601Z,1.60
2022-09-03T06:14:06.011Z,2.45
2022-09-03T06:16:35.494Z,2.30
2022-09-03T06:19:03.786Z,1.75
2022-09-03T06:21:31.885Z,2.10
2022-09-03T06:24:01.265Z,2.15
2022-09-03T06:26:29.840Z,1.90
2022-09-03T06:28:58.401Z,1.45
2022-09-03T06:31:27.375Z,1.50
2022-09-03T06:33:58.570Z,2.20
2022-09-03T06:36:29.092Z,1.77
2022-09-03T06:38:57.702Z,2.03
2022-09-03T06:41:31.899Z,1.88
2022-09-03T06:44:03.430Z,1.65
2022-09-03T06:46:32.673Z,1.50
2022-09-03T06:49:00.698Z,1.60
2022-09-03T06:51:30.550Z,1.80
2022-09-03T06:54:01.760Z,1.73
2022-09-03T06:56:37.377Z,1.70
2022-09-03T06:59:08.989Z,1.70
2022-09-03T07:01:44.045Z,1.70
2022-09-03T07:04:13.209Z,1.95
2022-09-03T07:06:43.247Z,1.60
2022-09-03T07:09:13.013Z,2.28
2022-09-03T07:11:47.374Z,2.10
2022-09-03T07:14:16.823Z,1.60
2022-09-03T07:16:46.132Z,2.33
2022-09-03T07:19:14.405Z,1.98
2022-09-03T07:21:48.796Z,1.73
2022-09-03T07:24:19.312Z,1.45
2022-09-03T07:26:49.608Z,1.80
2022-09-03T07:29:20.454Z,2.08
2022-09-03T07:31:51.607Z,2.22
2022-09-03T07:34:20.492Z,1.98
2022-09-03T07:36:51.407Z,1.95
2022-09-03T07:39:20.682Z,2.08
2022-09-03T07:41:50.259Z,1.98
2022-09-03T07:44:20.632Z,1.63
2022-09-03T07:46:50.880Z,2.05
2022-09-03T07:49:20.334Z,1.80
2022-09-03T07:51:50.946Z,1.50
2022-09-03T07:54:20.399Z,1.73
2022-09-03T07:56:49.834Z,1.70
2022-09-03T07:59:18.175Z,1.80
2022-09-03T08:01:46.237Z,1.60
2022-09-03T08:04:14.379Z,1.75
2022-09-03T08:06:42.467Z,2.13
2022-09-03T08:09:13.739Z,1.58
2022-09-03T08:11:44.426Z,1.70
2022-09-03T08:14:14.952Z,1.83
2022-09-03T08:16:44.607Z,1.88
2022-09-03T08:19:13.482Z,1.63
2022-09-03T08:21:42.543Z,2.60
2022-09-03T08:24:11.704Z,1.80
2022-09-03T08:26:41.928Z,1.98
2022-09-03T08:29:10.564Z,1.90
2022-09-03T08:31:40.008Z,1.65
2022-09-03T08:34:08.600Z,1.60
2022-09-03T08:36:38.306Z,2.30
2022-09-03T08:39:10.241Z,1.73
2022-09-03T08:44:21.349Z,1.75
2022-09-03T08:46:53.012Z,1.48
2022-09-03T08:49:25.286Z,1.80
2022-09-03T08:54:23.179Z,1.80
2022-09-03T08:56:52.612Z,1.52
2022-09-03T08:59:22.082Z,1.70
2022-09-03T09:02:00.542Z,1.48
2022-09-03T09:04:36.029Z,1.45
2022-09-03T09:07:09.683Z,1.50
2022-09-03T09:09:44.306Z,1.60
2022-09-03T09:12:19.549Z,1.58
2022-09-03T09:14:52.101Z,1.50
2022-09-03T09:17:41.774Z,1.40
2022-09-03T09:20:17.242Z,1.08
2022-09-03T09:22:47.612Z,1.63
2022-09-03T09:25:19.498Z,1.55
2022-09-03T09:27:52.567Z,1.23
2022-09-03T09:30:20.981Z,1.38
2022-09-03T09:32:50.409Z,1.35
2022-09-03T09:35:19.378Z,1.20
2022-09-03T09:37:48.841Z,1.58
2022-09-03T09:40:31.089Z,1.30
2022-09-03T09:43:06.923Z,1.23
2022-09-03T09:45:35.313Z,1.80
2022-09-03T09:48:10.863Z,1.15
2022-09-03T09:50:39.228Z,1.25
2022-09-03T09:53:14.797Z,1.30
2022-09-03T09:55:54.831Z,1.02
2022-09-03T09:58:25.326Z,1.10
2022-09-03T10:01:03.222Z,1.38
2022-09-03T10:03:36.249Z,1.00
2022-09-03T10:06:21.058Z,1.45
2022-09-03T10:08:49.527Z,1.67
2022-09-03T10:11:18.902Z,1.33
2022-09-03T10:13:48.516Z,1.60
2022-09-03T10:16:23.394Z,0.90
2022-09-03T10:18:59.175Z,1.20
2022-09-03T10:21:34.367Z,1.40
2022-09-03T10:24:16.447Z,1.05
2022-09-03T10:26:46.142Z,1.38
2022-09-03T10:29:19.510Z,1.40
2022-09-03T10:31:57.021Z,1.40
2022-09-03T10:34:37.106Z,1.10
2022-09-03T10:37:15.767Z,1.20
2022-09-03T10:39:53.477Z,0.95
2022-09-03T10:42:41.147Z,1.38
2022-09-03T10:45:19.232Z,1.10
2022-09-03T10:48:07.542Z,1.20
2022-09-03T10:50:46.012Z,1.48
2022-09-03T10:53:24.878Z,0.95
2022-09-03T10:55:59.251Z,1.38
2022-09-03T10:58:45.432Z,1.20
2022-09-03T11:01:22.363Z,1.17
2022-09-03T11:03:55.090Z,1.23
2022-09-03T11:06:27.341Z,2.08
2022-09-03T11:09:02.052Z,1.30
2022-09-03T11:11:37.615Z,1.35
2022-09-03T11:14:10.016Z,1.15
2022-09-03T11:16:41.492Z,1.17
2022-09-03T11:19:12.331Z,1.25
2022-09-03T11:21:44.052Z,1.73
2022-09-03T11:24:15.071Z,1.25
2022-09-03T11:26:45.224Z,1.30
2022-09-03T11:29:17.227Z,1.45
2022-09-03T11:31:57.788Z,1.45
2022-09-03T11:34:32.006Z,1.20
2022-09-03T11:37:22.808Z,0.98
2022-09-03T11:40:05.469Z,0.88
2022-09-03T11:42:37.002Z,1.48
2022-09-03T11:45:22.720Z,1.30
2022-09-03T11:47:51.279Z,1.30
2022-09-03T11:50:22.943Z,1.15
2022-09-03T11:52:54.303Z,1.60
2022-09-03T11:55:38.291Z,1.47
2022-09-03T11:58:13.363Z,1.52
2022-09-03T12:00:44.843Z,1.40
2022-09-03T12:03:18.005Z,1.40
2022-09-03T12:05:51.619Z,1.88
2022-09-03T12:08:54.987Z,1.60
2022-09-03T12:11:35.733Z,1.35
2022-09-03T12:14:13.818Z,0.95
2022-09-03T12:17:06.232Z,1.55
2022-09-03T12:19:39.321Z,1.13
2022-09-03T12:22:07.499Z,1.40
2022-09-03T12:24:38.456Z,1.40
2022-09-03T12:27:08.003Z,1.27
2022-09-03T12:29:36.276Z,1.48
2022-09-03T12:32:08.981Z,1.33
2022-09-03T12:34:37.426Z,1.23
2022-09-03T12:38:04.282Z,1.33
2022-09-03T12:40:18.172Z,1.63
2022-09-03T12:42:46.368Z,1.42
2022-09-03T12:45:16.622Z,1.63
2022-09-03T12:47:45.108Z,1.27
2022-09-03T12:50:14.720Z,1.33
2022-09-03T12:52:45.115Z,1.25
2022-09-03T12:55:27.675Z,1.45
2022-09-03T12:58:02.648Z,1.52
2022-09-03T13:00:35.399Z,1.40
2022-09-03T13:03:05.945Z,1.40
2022-09-03T13:05:36.175Z,1.17
2022-09-03T13:08:07.140Z,1.05
2022-09-03T13:10:42.050Z,1.13
2022-09-03T13:13:21.011Z,1.70
2022-09-03T13:16:47.384Z,1.30
2022-09-03T13:19:22.870Z,1.10
2022-09-03T13:21:55.668Z,1.25
2022-09-03T13:24:44.601Z,1.83
2022-09-03T13:27:20.699Z,1.48
2022-09-03T13:30:05.280Z,1.73
2022-09-03T13:32:40.954Z,1.20
2022-09-03T13:35:12.782Z,1.30
2022-09-03T13:37:44.456Z,1.88
2022-09-03T13:40:17.827Z,1.52
2022-09-03T13:42:53.388Z,1.40
2022-09-03T13:45:31.363Z,1.60
2022-09-03T13:48:19.651Z,1.52
2022-09-03T13:50:50.530Z,1.40
2022-09-03T13:53:32.852Z,1.50
2022-09-03T13:56:06.525Z,2.00
2022-09-03T13:58:38.692Z,1.67
2022-09-03T14:03:48.094Z,1.45
2022-09-03T14:06:25.985Z,1.40
2022-09-03T14:09:02.250Z,2.03
2022-09-03T14:11:33.803Z,1.92
2022-09-03T14:14:16.555Z,2.00
2022-09-03T14:16:50.067Z,1.98
2022-09-03T14:19:23.386Z,1.92
2022-09-03T14:21:54.578Z,2.15
2022-09-03T14:24:25.755Z,1.80
2022-09-03T14:26:55.907Z,1.55
2022-09-03T14:29:28.406Z,1.50
2022-09-03T14:32:15.951Z,1.50
2022-09-03T14:34:56.431Z,2.22
2022-09-03T14:37:39.603Z,1.83
2022-09-03T14:40:14.889Z,1.48
2022-09-03T14:42:56.006Z,1.60
2022-09-03T14:45:34.036Z,1.90
2022-09-03T14:48:12.782Z,1.60
2022-09-03T14:50:58.224Z,2.00
2022-09-03T14:53:43.414Z,1.70
2022-09-03T14:56:27.515Z,1.52
2022-09-03T14:59:13.524Z,1.83
2022-09-03T15:01:44.976Z,2.13
2022-09-03T15:04:34.351Z,1.63
2022-09-03T15:07:31.885Z,1.90
2022-09-03T15:10:05.333Z,1.70
2022-09-03T15:12:37.202Z,2.40
2022-09-03T15:15:11.711Z,1.70
2022-09-03T15:17:49.119Z,1.80
2022-09-03T15:20:33.437Z,1.63
2022-09-03T15:23:13.184Z,1.85
2022-09-03T15:26:12.971Z,1.92
2022-09-03T15:28:50.780Z,1.45
2022-09-03T15:31:23.541Z,2.28
2022-09-03T15:33:59.571Z,2.03
2022-09-03T15:36:28.703Z,2.20
2022-09-03T15:38:59.782Z,1.83
2022-09-03T15:41:35.845Z,2.20
2022-09-03T15:44:07.757Z,2.35
2022-09-03T15:46:41.253Z,2.58
2022-09-03T15:49:19.939Z,1.70
2022-09-03T15:52:02.047Z,2.25
2022-09-03T15:54:37.224Z,2.10
2022-09-03T15:57:09.162Z,2.10
2022-09-03T15:59:42.663Z,1.80
2022-09-03T16:02:15.486Z,1.98
2022-09-03T16:05:06.196Z,1.77
2022-09-03T16:07:48.931Z,1.90
2022-09-03T16:10:26.327Z,1.95
2022-09-03T16:13:03.670Z,2.15
2022-09-03T16:15:36.281Z,2.17
2022-09-03T16:18:09.008Z,1.95
2022-09-03T16:20:42.952Z,2.17
2022-09-03T16:23:16.603Z,2.25
2022-09-03T16:25:49.685Z,2.08
2022-09-03T16:28:21.142Z,1.95
2022-09-03T16:31:01.126Z,2.00
2022-09-03T16:33:35.649Z,1.98
2022-09-03T16:36:09.322Z,1.80
2022-09-03T16:38:46.693Z,2.20
2022-09-03T16:41:22.214Z,2.13
2022-09-03T16:43:58.436Z,2.08
2022-09-03T16:46:30.769Z,2.22
2022-09-03T16:51:35.072Z,2.25
2022-09-03T16:54:26.425Z,2.55
2022-09-03T16:57:02.727Z,2.17
2022-09-03T16:59:47.615Z,2.38
2022-09-03T17:02:41.053Z,2.47
2022-09-03T17:05:31.698Z,2.45
2022-09-03T17:08:09.455Z,1.95
2022-09-03T17:10:43.161Z,2.33
2022-09-03T17:13:35.021Z,2.08
2022-09-03T17:16:10.328Z,1.57
2022-09-03T17:18:51.958Z,2.25
2022-09-03T17:21:34.031Z,1.77
2022-09-03T17:24:24.552Z,2.13
2022-09-03T17:26:56.084Z,2.08
2022-09-03T17:29:35.873Z,2.20
2022-09-03T17:32:11.978Z,2.38
2022-09-03T17:34:48.906Z,1.70
2022-09-03T17:37:23.588Z,2.47
2022-09-03T17:40:02.713Z,2.10
2022-09-03T17:42:34.264Z,2.25
2022-09-03T17:45:11.303Z,2.30
2022-09-03T17:48:05.502Z,2.55
2022-09-03T17:50:35.847Z,2.42
2022-09-03T17:53:11.246Z,2.50
2022-09-03T17:55:43.560Z,2.63
2022-09-03T18:00:45.806Z,2.83
2022-09-03T18:03:18.328Z,2.38
2022-09-03T18:05:53.668Z,2.40
2022-09-03T18:08:25.753Z,2.78
2022-09-03T18:11:03.585Z,2.45
2022-09-03T18:13:44.173Z,2.40
2022-09-03T18:16:15.862Z,2.20
2022-09-03T18:18:47.716Z,2.60
2022-09-03T18:21:39.567Z,2.30
2022-09-03T18:24:36.527Z,2.30
2022-09-03T18:27:29.944Z,2.42
2022-09-03T18:30:20.395Z,2.60
2022-09-03T18:33:07.233Z,2.40
2022-09-03T18:35:53.378Z,3.05
2022-09-03T18:38:43.478Z,2.50
2022-09-03T18:41:55.889Z,2.45
2022-09-03T18:44:57.839Z,3.10
2022-09-03T18:48:10.800Z,2.60
2022-09-03T18:51:05.665Z,2.50
2022-09-03T18:54:00.029Z,2.90
2022-09-03T18:56:51.006Z,2.63
2022-09-03T18:59:49.258Z,2.72
2022-09-03T19:02:46.011Z,3.03
2022-09-03T19:05:36.779Z,3.05
2022-09-03T19:08:29.281Z,2.80
2022-09-03T19:11:19.985Z,2.92
2022-09-03T19:14:05.585Z,3.22
2022-09-03T19:17:01.004Z,2.95
2022-09-03T19:20:08.845Z,3.05
2022-09-03T19:22:56.879Z,3.20
2022-09-03T19:25:43.588Z,3.42
2022-09-03T19:28:34.554Z,3.22
2022-09-03T19:31:37.508Z,3.15
2022-09-03T19:34:29.349Z,2.90
2022-09-03T19:37:19.368Z,2.83
2022-09-03T19:40:16.180Z,3.20
2022-09-03T19:43:10.070Z,3.00
2022-09-03T19:46:09.371Z,2.90
2022-09-03T19:49:02.523Z,2.67
2022-09-03T19:51:54.209Z,2.80
2022-09-03T19:54:42.253Z,2.70
2022-09-03T19:57:30.925Z,2.90
2022-09-03T20:00:17.097Z,3.03
2022-09-03T20:03:08.427Z,3.35
2022-09-03T20:05:55.860Z,2.75
2022-09-03T20:08:44.022Z,2.90
2022-09-03T20:11:18.938Z,2.95
2022-09-03T20:14:04.797Z,2.80
2022-09-03T20:16:37.570Z,2.65
2022-09-03T20:19:11.394Z,3.20
2022-09-03T20:21:41.146Z,2.97
2022-09-03T20:24:19.728Z,2.80
2022-09-03T20:26:54.867Z,2.53
2022-09-03T20:29:33.538Z,2.72
2022-09-03T20:32:05.892Z,2.70
2022-09-03T20:37:13.275Z,2.85
2022-09-03T20:39:52.044Z,2.63
2022-09-03T20:42:36.472Z,2.85
2022-09-03T20:45:09.051Z,2.63
2022-09-03T20:48:03.322Z,2.75
2022-09-03T20:50:48.712Z,2.85
2022-09-03T20:53:31.932Z,2.72
2022-09-03T20:56:04.988Z,2.40
2022-09-03T20:58:38.104Z,2.47
2022-09-03T21:01:08.407Z,2.53
2022-09-03T21:03:41.669Z,2.20
2022-09-03T21:06:20.189Z,2.50
2022-09-03T21:08:57.330Z,2.50
2022-09-03T21:11:36.159Z,2.42
2022-09-03T21:14:15.376Z,2.20
2022-09-03T21:16:49.923Z,2.00
2022-09-03T21:19:24.116Z,2.65
2022-09-03T21:21:58.074Z,2.78
2022-09-03T21:24:31.507Z,2.22
2022-09-03T21:27:06.267Z,2.80
2022-09-03T21:29:39.420Z,2.20
2022-09-03T21:32:13.065Z,2.70
2022-09-03T21:34:43.139Z,2.45
2022-09-03T21:37:12.899Z,2.67
2022-09-03T21:39:43.807Z,2.42
2022-09-03T21:42:18.265Z,2.33
2022-09-03T21:44:52.137Z,2.58
2022-09-03T21:47:22.172Z,2.75
2022-09-03T21:50:01.803Z,2.83
2022-09-03T21:52:36.568Z,2.20
2022-09-03T21:55:15.504Z,2.55
2022-09-03T21:58:03.835Z,1.92
2022-09-03T22:00:32.712Z,2.65
2022-09-03T22:03:01.658Z,2.80
2022-09-03T22:05:35.049Z,2.25
2022-09-03T22:08:12.272Z,2.25
2022-09-03T22:10:46.412Z,2.50
2022-09-03T22:13:20.577Z,2.50
2022-09-03T22:15:51.580Z,2.58
2022-09-03T22:18:29.002Z,2.67
2022-09-03T22:21:03.090Z,2.35
2022-09-03T22:23:43.859Z,2.55
2022-09-03T22:26:22.850Z,2.60
2022-09-03T22:29:02.330Z,2.70
2022-09-03T22:31:40.177Z,2.67
2022-09-03T22:34:33.457Z,1.83
2022-09-03T22:37:03.738Z,2.28
2022-09-03T22:39:37.663Z,2.65
2022-09-03T22:42:17.026Z,2.40
2022-09-03T22:45:13.558Z,2.67
2022-09-03T22:47:49.238Z,3.03
2022-09-03T22:50:22.257Z,2.22
2022-09-03T22:52:55.860Z,2.78
2022-09-03T22:55:25.634Z,2.08
2022-09-03T22:57:58.280Z,2.13
2022-09-03T23:00:29.836Z,2.83
2022-09-03T23:03:03.154Z,2.60
2022-09-03T23:05:38.091Z,2.47
2022-09-03T23:08:11.209Z,2.17
2022-09-03T23:10:53.537Z,2.17
2022-09-03T23:13:24.449Z,2.70
2022-09-03T23:16:00.903Z,2.10
2022-09-03T23:18:30.716Z,2.50
2022-09-03T23:21:05.889Z,2.30
2022-09-03T23:23:36.010Z,2.50
2022-09-03T23:26:13.257Z,2.85
2022-09-03T23:28:44.416Z,2.15
2022-09-03T23:31:19.929Z,2.65
2022-09-03T23:34:08.905Z,1.88
2022-09-03T23:37:16.099Z,2.35
2022-09-03T23:40:01.304Z,2.55
2022-09-03T23:42:44.696Z,2.35
2022-09-03T23:45:20.860Z,2.88
2022-09-03T23:47:54.463Z,2.10
2022-09-03T23:50:33.133Z,2.08
2022-09-03T23:53:22.256Z,2.20
2022-09-03T23:55:59.821Z,2.20
2022-09-03T23:58:37.086Z,2.53
